sensor_id;sensor_type;location;lat;lon;timestamp;temperature;humidity
54938;DHT22;52756;52.826;6.214;2023-02-12T00:01:39;6.90;82.20
54938;DHT22;52756;52.826;6.214;2023-02-12T00:04:04;6.90;82.10
54938;DHT22;52756;52.826;6.214;2023-02-12T00:06:30;6.80;82.00
54938;DHT22;52756;52.826;6.214;2023-02-12T00:08:57;6.80;81.90
54938;DHT22;52756;52.826;6.214;2023-02-12T00:11:25;6.80;81.80
54938;DHT22;52756;52.826;6.214;2023-02-12T00:13:52;6.80;81.80
54938;DHT22;52756;52.826;6.214;2023-02-12T00:16:21;6.80;81.70
54938;DHT22;52756;52.826;6.214;2023-02-12T00:18:51;6.70;81.60
54938;DHT22;52756;52.826;6.214;2023-02-12T00:21:17;6.70;81.50
54938;DHT22;52756;52.826;6.214;2023-02-12T00:23:43;6.70;81.50
54938;DHT22;52756;52.826;6.214;2023-02-12T00:26:14;6.70;81.50
54938;DHT22;52756;52.826;6.214;2023-02-12T00:28:40;6.70;81.60
54938;DHT22;52756;52.826;6.214;2023-02-12T00:31:32;6.60;81.50
54938;DHT22;52756;52.826;6.214;2023-02-12T00:33:59;6.60;81.40
54938;DHT22;52756;52.826;6.214;2023-02-12T00:36:27;6.60;81.60
54938;DHT22;52756;52.826;6.214;2023-02-12T00:38:55;6.50;81.60
54938;DHT22;52756;52.826;6.214;2023-02-12T00:41:21;6.60;81.60
54938;DHT22;52756;52.826;6.214;2023-02-12T00:43:47;6.50;81.60
54938;DHT22;52756;52.826;6.214;2023-02-12T00:46:14;6.50;81.70
54938;DHT22;52756;52.826;6.214;2023-02-12T00:48:40;6.50;81.70
54938;DHT22;52756;52.826;6.214;2023-02-12T00:51:06;6.50;81.80
54938;DHT22;52756;52.826;6.214;2023-02-12T00:53:32;6.50;81.80
54938;DHT22;52756;52.826;6.214;2023-02-12T00:55:58;6.40;81.80
54938;DHT22;52756;52.826;6.214;2023-02-12T00:58:24;6.50;81.90
54938;DHT22;52756;52.826;6.214;2023-02-12T01:00:51;6.50;82.00
54938;DHT22;52756;52.826;6.214;2023-02-12T01:03:17;6.40;82.00
54938;DHT22;52756;52.826;6.214;2023-02-12T01:05:43;6.40;82.00
54938;DHT22;52756;52.826;6.214;2023-02-12T01:08:13;6.40;82.10
54938;DHT22;52756;52.826;6.214;2023-02-12T01:10:40;6.50;82.30
54938;DHT22;52756;52.826;6.214;2023-02-12T01:13:06;6.50;82.30
54938;DHT22;52756;52.826;6.214;2023-02-12T01:15:32;6.40;82.30
54938;DHT22;52756;52.826;6.214;2023-02-12T01:17:58;6.40;82.40
54938;DHT22;52756;52.826;6.214;2023-02-12T01:20:24;6.40;82.90
54938;DHT22;52756;52.826;6.214;2023-02-12T01:22:50;6.40;82.50
54938;DHT22;52756;52.826;6.214;2023-02-12T01:25:17;6.40;82.60
54938;DHT22;52756;52.826;6.214;2023-02-12T01:27:43;6.40;82.60
54938;DHT22;52756;52.826;6.214;2023-02-12T01:30:11;6.50;82.70
54938;DHT22;52756;52.826;6.214;2023-02-12T01:32:37;6.50;82.80
54938;DHT22;52756;52.826;6.214;2023-02-12T01:35:04;6.50;82.80
54938;DHT22;52756;52.826;6.214;2023-02-12T01:37:30;6.50;82.90
54938;DHT22;52756;52.826;6.214;2023-02-12T01:39:56;6.50;82.90
54938;DHT22;52756;52.826;6.214;2023-02-12T01:42:21;6.50;82.90
54938;DHT22;52756;52.826;6.214;2023-02-12T01:47:42;6.50;83.00
54938;DHT22;52756;52.826;6.214;2023-02-12T01:50:12;6.50;83.00
54938;DHT22;52756;52.826;6.214;2023-02-12T01:52:40;6.50;83.10
54938;DHT22;52756;52.826;6.214;2023-02-12T01:55:08;6.50;83.10
54938;DHT22;52756;52.826;6.214;2023-02-12T01:57:38;6.50;83.10
54938;DHT22;52756;52.826;6.214;2023-02-12T02:00:10;6.60;83.20
54938;DHT22;52756;52.826;6.214;2023-02-12T02:02:38;6.50;83.10
54938;DHT22;52756;52.826;6.214;2023-02-12T02:05:05;6.60;83.20
54938;DHT22;52756;52.826;6.214;2023-02-12T02:07:32;6.60;83.20
54938;DHT22;52756;52.826;6.214;2023-02-12T02:09:58;6.60;83.10
54938;DHT22;52756;52.826;6.214;2023-02-12T02:12:25;6.60;83.20
54938;DHT22;52756;52.826;6.214;2023-02-12T02:15:10;6.60;83.20
54938;DHT22;52756;52.826;6.214;2023-02-12T02:26:16;6.60;83.20
54938;DHT22;52756;52.826;6.214;2023-02-12T02:31:46;6.60;83.00
54938;DHT22;52756;52.826;6.214;2023-02-12T02:34:37;6.60;83.00
54938;DHT22;52756;52.826;6.214;2023-02-12T02:42:49;6.60;82.80
54938;DHT22;52756;52.826;6.214;2023-02-12T02:50:50;6.60;82.80
54938;DHT22;52756;52.826;6.214;2023-02-12T02:55:53;6.60;82.70
54938;DHT22;52756;52.826;6.214;2023-02-12T02:58:31;6.60;82.70
54938;DHT22;52756;52.826;6.214;2023-02-12T03:01:04;6.60;82.70
54938;DHT22;52756;52.826;6.214;2023-02-12T03:06:31;6.60;82.70
54938;DHT22;52756;52.826;6.214;2023-02-12T03:09:08;6.60;82.70
54938;DHT22;52756;52.826;6.214;2023-02-12T03:11:36;6.60;82.80
54938;DHT22;52756;52.826;6.214;2023-02-12T03:14:17;6.50;82.70
54938;DHT22;52756;52.826;6.214;2023-02-12T03:16:58;6.60;82.80
54938;DHT22;52756;52.826;6.214;2023-02-12T03:19:30;6.60;82.80
54938;DHT22;52756;52.826;6.214;2023-02-12T03:22:04;6.60;82.90
54938;DHT22;52756;52.826;6.214;2023-02-12T03:24:49;6.60;83.00
54938;DHT22;52756;52.826;6.214;2023-02-12T03:27:38;6.60;83.00
54938;DHT22;52756;52.826;6.214;2023-02-12T03:30:07;6.50;82.80
54938;DHT22;52756;52.826;6.214;2023-02-12T03:32:54;6.50;82.80
54938;DHT22;52756;52.826;6.214;2023-02-12T03:40:55;6.60;82.80
54938;DHT22;52756;52.826;6.214;2023-02-12T03:43:49;6.50;82.80
54938;DHT22;52756;52.826;6.214;2023-02-12T03:53:55;6.60;82.90
54938;DHT22;52756;52.826;6.214;2023-02-12T03:56:26;6.60;83.00
54938;DHT22;52756;52.826;6.214;2023-02-12T03:58:53;6.60;83.00
54938;DHT22;52756;52.826;6.214;2023-02-12T04:01:19;6.60;83.00
54938;DHT22;52756;52.826;6.214;2023-02-12T04:03:45;6.60;83.00
54938;DHT22;52756;52.826;6.214;2023-02-12T04:06:22;6.60;83.00
54938;DHT22;52756;52.826;6.214;2023-02-12T04:08:50;6.60;83.50
54938;DHT22;52756;52.826;6.214;2023-02-12T04:20:30;6.60;83.00
54938;DHT22;52756;52.826;6.214;2023-02-12T04:25:54;6.60;83.10
54938;DHT22;52756;52.826;6.214;2023-02-12T04:28:41;6.60;83.00
54938;DHT22;52756;52.826;6.214;2023-02-12T04:33:48;6.60;83.00
54938;DHT22;52756;52.826;6.214;2023-02-12T04:36:29;6.60;83.00
54938;DHT22;52756;52.826;6.214;2023-02-12T04:39:06;6.60;82.90
54938;DHT22;52756;52.826;6.214;2023-02-12T04:41:36;6.60;83.00
54938;DHT22;52756;52.826;6.214;2023-02-12T04:46:41;6.70;82.90
54938;DHT22;52756;52.826;6.214;2023-02-12T04:49:13;6.60;82.80
54938;DHT22;52756;52.826;6.214;2023-02-12T04:51:39;6.60;82.90
54938;DHT22;52756;52.826;6.214;2023-02-12T04:54:05;6.60;82.70
54938;DHT22;52756;52.826;6.214;2023-02-12T04:56:31;6.60;82.70
54938;DHT22;52756;52.826;6.214;2023-02-12T04:58:56;6.60;82.70
54938;DHT22;52756;52.826;6.214;2023-02-12T05:01:23;6.60;82.70
54938;DHT22;52756;52.826;6.214;2023-02-12T05:03:48;6.60;82.80
54938;DHT22;52756;52.826;6.214;2023-02-12T05:06:15;6.60;82.80
54938;DHT22;52756;52.826;6.214;2023-02-12T05:08:41;6.60;82.80
54938;DHT22;52756;52.826;6.214;2023-02-12T05:11:08;6.60;82.70
54938;DHT22;52756;52.826;6.214;2023-02-12T05:13:34;6.70;82.80
54938;DHT22;52756;52.826;6.214;2023-02-12T05:16:05;6.60;82.80
54938;DHT22;52756;52.826;6.214;2023-02-12T05:18:31;6.60;82.80
54938;DHT22;52756;52.826;6.214;2023-02-12T05:20:58;6.60;82.70
54938;DHT22;52756;52.826;6.214;2023-02-12T05:23:32;6.70;82.80
54938;DHT22;52756;52.826;6.214;2023-02-12T05:26:01;6.70;82.80
54938;DHT22;52756;52.826;6.214;2023-02-12T05:28:28;6.60;82.70
54938;DHT22;52756;52.826;6.214;2023-02-12T05:30:59;6.70;82.80
54938;DHT22;52756;52.826;6.214;2023-02-12T05:33:25;6.70;82.70
54938;DHT22;52756;52.826;6.214;2023-02-12T05:35:51;6.60;82.60
54938;DHT22;52756;52.826;6.214;2023-02-12T05:38:16;6.70;82.70
54938;DHT22;52756;52.826;6.214;2023-02-12T05:40:42;6.70;82.60
54938;DHT22;52756;52.826;6.214;2023-02-12T05:43:09;6.60;82.60
54938;DHT22;52756;52.826;6.214;2023-02-12T05:45:35;6.70;82.60
54938;DHT22;52756;52.826;6.214;2023-02-12T05:48:02;6.70;82.60
54938;DHT22;52756;52.826;6.214;2023-02-12T05:50:28;6.70;82.60
54938;DHT22;52756;52.826;6.214;2023-02-12T05:52:54;6.70;82.50
54938;DHT22;52756;52.826;6.214;2023-02-12T05:55:20;6.70;82.50
54938;DHT22;52756;52.826;6.214;2023-02-12T05:57:46;6.70;82.50
54938;DHT22;52756;52.826;6.214;2023-02-12T06:00:12;6.70;82.40
54938;DHT22;52756;52.826;6.214;2023-02-12T06:02:37;6.70;82.40
54938;DHT22;52756;52.826;6.214;2023-02-12T06:05:03;6.70;82.30
54938;DHT22;52756;52.826;6.214;2023-02-12T06:07:29;6.60;82.20
54938;DHT22;52756;52.826;6.214;2023-02-12T06:09:55;6.60;82.20
54938;DHT22;52756;52.826;6.214;2023-02-12T06:12:20;6.60;82.30
54938;DHT22;52756;52.826;6.214;2023-02-12T06:14:46;6.70;82.30
54938;DHT22;52756;52.826;6.214;2023-02-12T06:17:12;6.60;82.30
54938;DHT22;52756;52.826;6.214;2023-02-12T06:19:38;6.60;82.40
54938;DHT22;52756;52.826;6.214;2023-02-12T06:22:04;6.70;82.50
54938;DHT22;52756;52.826;6.214;2023-02-12T06:24:29;6.60;82.50
54938;DHT22;52756;52.826;6.214;2023-02-12T06:26:55;6.70;82.50
54938;DHT22;52756;52.826;6.214;2023-02-12T06:29:21;6.60;82.50
54938;DHT22;52756;52.826;6.214;2023-02-12T06:31:47;6.60;82.50
54938;DHT22;52756;52.826;6.214;2023-02-12T06:34:14;6.70;82.50
54938;DHT22;52756;52.826;6.214;2023-02-12T06:36:43;6.60;82.50
54938;DHT22;52756;52.826;6.214;2023-02-12T06:39:11;6.70;82.50
54938;DHT22;52756;52.826;6.214;2023-02-12T06:41:37;6.60;82.50
54938;DHT22;52756;52.826;6.214;2023-02-12T06:44:04;6.70;82.50
54938;DHT22;52756;52.826;6.214;2023-02-12T06:46:30;6.70;82.50
54938;DHT22;52756;52.826;6.214;2023-02-12T06:48:57;6.70;82.50
54938;DHT22;52756;52.826;6.214;2023-02-12T06:51:23;6.70;82.60
54938;DHT22;52756;52.826;6.214;2023-02-12T06:53:51;6.70;82.60
54938;DHT22;52756;52.826;6.214;2023-02-12T06:56:18;6.70;82.60
54938;DHT22;52756;52.826;6.214;2023-02-12T06:58:45;6.70;82.60
54938;DHT22;52756;52.826;6.214;2023-02-12T07:01:17;6.70;82.60
54938;DHT22;52756;52.826;6.214;2023-02-12T07:03:47;6.70;82.60
54938;DHT22;52756;52.826;6.214;2023-02-12T07:06:13;6.70;82.60
54938;DHT22;52756;52.826;6.214;2023-02-12T07:08:39;6.70;82.60
54938;DHT22;52756;52.826;6.214;2023-02-12T07:11:05;6.70;82.60
54938;DHT22;52756;52.826;6.214;2023-02-12T07:13:31;6.70;82.60
54938;DHT22;52756;52.826;6.214;2023-02-12T07:16:03;6.70;82.60
54938;DHT22;52756;52.826;6.214;2023-02-12T07:18:29;6.70;82.70
54938;DHT22;52756;52.826;6.214;2023-02-12T07:20:55;6.70;82.70
54938;DHT22;52756;52.826;6.214;2023-02-12T07:23:21;6.70;82.70
54938;DHT22;52756;52.826;6.214;2023-02-12T07:28:22;6.70;82.80
54938;DHT22;52756;52.826;6.214;2023-02-12T07:30:48;6.70;82.80
54938;DHT22;52756;52.826;6.214;2023-02-12T07:33:13;6.80;82.80
54938;DHT22;52756;52.826;6.214;2023-02-12T07:35:39;6.70;82.80
54938;DHT22;52756;52.826;6.214;2023-02-12T07:38:05;6.80;82.90
54938;DHT22;52756;52.826;6.214;2023-02-12T07:40:30;6.80;82.90
54938;DHT22;52756;52.826;6.214;2023-02-12T07:42:56;6.80;82.90
54938;DHT22;52756;52.826;6.214;2023-02-12T07:45:22;6.80;83.00
54938;DHT22;52756;52.826;6.214;2023-02-12T07:47:47;6.80;83.00
54938;DHT22;52756;52.826;6.214;2023-02-12T07:50:14;6.90;83.10
54938;DHT22;52756;52.826;6.214;2023-02-12T07:52:40;6.80;83.40
54938;DHT22;52756;52.826;6.214;2023-02-12T07:55:06;6.80;83.20
54938;DHT22;52756;52.826;6.214;2023-02-12T07:57:34;6.80;83.20
54938;DHT22;52756;52.826;6.214;2023-02-12T08:00:00;6.90;83.40
54938;DHT22;52756;52.826;6.214;2023-02-12T08:02:25;6.80;83.40
54938;DHT22;52756;52.826;6.214;2023-02-12T08:04:57;6.90;83.60
54938;DHT22;52756;52.826;6.214;2023-02-12T08:07:23;6.90;83.70
54938;DHT22;52756;52.826;6.214;2023-02-12T08:09:49;6.90;83.70
54938;DHT22;52756;52.826;6.214;2023-02-12T08:12:15;6.90;83.80
54938;DHT22;52756;52.826;6.214;2023-02-12T08:14:41;6.90;83.90
54938;DHT22;52756;52.826;6.214;2023-02-12T08:17:07;6.90;83.90
54938;DHT22;52756;52.826;6.214;2023-02-12T08:19:33;7.00;84.00
54938;DHT22;52756;52.826;6.214;2023-02-12T08:21:59;7.00;84.10
54938;DHT22;52756;52.826;6.214;2023-02-12T08:24:28;7.00;84.10
54938;DHT22;52756;52.826;6.214;2023-02-12T08:26:54;6.90;84.10
54938;DHT22;52756;52.826;6.214;2023-02-12T08:29:23;7.00;84.30
54938;DHT22;52756;52.826;6.214;2023-02-12T08:31:50;7.10;84.40
54938;DHT22;52756;52.826;6.214;2023-02-12T08:34:27;7.10;84.40
54938;DHT22;52756;52.826;6.214;2023-02-12T08:36:54;7.10;84.50
54938;DHT22;52756;52.826;6.214;2023-02-12T08:39:20;7.10;84.20
54938;DHT22;52756;52.826;6.214;2023-02-12T08:41:46;7.10;84.50
54938;DHT22;52756;52.826;6.214;2023-02-12T08:44:13;7.10;84.50
54938;DHT22;52756;52.826;6.214;2023-02-12T08:46:43;7.20;84.70
54938;DHT22;52756;52.826;6.214;2023-02-12T08:49:19;7.20;84.80
54938;DHT22;52756;52.826;6.214;2023-02-12T08:51:48;7.30;85.00
54938;DHT22;52756;52.826;6.214;2023-02-12T08:54:17;7.30;85.00
54938;DHT22;52756;52.826;6.214;2023-02-12T08:56:43;7.30;85.10
54938;DHT22;52756;52.826;6.214;2023-02-12T08:59:13;7.30;85.20
54938;DHT22;52756;52.826;6.214;2023-02-12T09:01:40;7.40;85.30
54938;DHT22;52756;52.826;6.214;2023-02-12T09:04:07;7.40;85.30
54938;DHT22;52756;52.826;6.214;2023-02-12T09:06:34;7.50;85.40
54938;DHT22;52756;52.826;6.214;2023-02-12T09:09:00;7.50;85.50
54938;DHT22;52756;52.826;6.214;2023-02-12T09:11:28;7.50;85.60
54938;DHT22;52756;52.826;6.214;2023-02-12T09:14:02;7.60;85.70
54938;DHT22;52756;52.826;6.214;2023-02-12T09:16:32;7.60;85.90
54938;DHT22;52756;52.826;6.214;2023-02-12T09:18:58;7.60;86.00
54938;DHT22;52756;52.826;6.214;2023-02-12T09:21:24;7.70;86.50
54938;DHT22;52756;52.826;6.214;2023-02-12T09:23:50;7.70;86.10
54938;DHT22;52756;52.826;6.214;2023-02-12T09:26:21;7.80;86.20
54938;DHT22;52756;52.826;6.214;2023-02-12T09:28:48;7.80;86.30
54938;DHT22;52756;52.826;6.214;2023-02-12T09:31:17;7.90;86.20
54938;DHT22;52756;52.826;6.214;2023-02-12T09:33:45;7.90;86.20
54938;DHT22;52756;52.826;6.214;2023-02-12T09:36:13;7.90;86.10
54938;DHT22;52756;52.826;6.214;2023-02-12T09:38:39;8.00;86.10
54938;DHT22;52756;52.826;6.214;2023-02-12T09:41:16;8.00;86.00
54938;DHT22;52756;52.826;6.214;2023-02-12T09:51:49;8.10;86.10
54938;DHT22;52756;52.826;6.214;2023-02-12T09:54:20;8.20;85.90
54938;DHT22;52756;52.826;6.214;2023-02-12T09:56:51;8.20;85.90
54938;DHT22;52756;52.826;6.214;2023-02-12T09:59:30;8.20;85.90
54938;DHT22;52756;52.826;6.214;2023-02-12T10:01:57;8.30;86.00
54938;DHT22;52756;52.826;6.214;2023-02-12T10:04:24;8.30;85.90
54938;DHT22;52756;52.826;6.214;2023-02-12T10:09:40;8.40;85.80
54938;DHT22;52756;52.826;6.214;2023-02-12T10:12:14;8.40;85.70
54938;DHT22;52756;52.826;6.214;2023-02-12T10:14:54;8.50;85.70
54938;DHT22;52756;52.826;6.214;2023-02-12T10:17:26;8.50;85.70
54938;DHT22;52756;52.826;6.214;2023-02-12T10:20:19;8.50;85.50
54938;DHT22;52756;52.826;6.214;2023-02-12T10:28:17;8.60;85.50
54938;DHT22;52756;52.826;6.214;2023-02-12T10:33:31;8.70;85.50
54938;DHT22;52756;52.826;6.214;2023-02-12T10:36:26;8.80;85.60
54938;DHT22;52756;52.826;6.214;2023-02-12T10:39:01;8.80;85.50
54938;DHT22;52756;52.826;6.214;2023-02-12T10:41:29;8.80;85.30
54938;DHT22;52756;52.826;6.214;2023-02-12T10:43:56;8.90;85.20
54938;DHT22;52756;52.826;6.214;2023-02-12T10:46:22;8.90;85.10
54938;DHT22;52756;52.826;6.214;2023-02-12T10:48:52;8.90;85.00
54938;DHT22;52756;52.826;6.214;2023-02-12T10:53:48;9.00;84.80
54938;DHT22;52756;52.826;6.214;2023-02-12T10:56:18;9.10;84.70
54938;DHT22;52756;52.826;6.214;2023-02-12T10:58:58;9.10;84.60
54938;DHT22;52756;52.826;6.214;2023-02-12T11:01:31;9.10;84.40
54938;DHT22;52756;52.826;6.214;2023-02-12T11:03:59;9.20;84.50
54938;DHT22;52756;52.826;6.214;2023-02-12T11:06:31;9.20;84.50
54938;DHT22;52756;52.826;6.214;2023-02-12T11:08:58;9.20;84.30
54938;DHT22;52756;52.826;6.214;2023-02-12T11:11:37;9.30;84.30
54938;DHT22;52756;52.826;6.214;2023-02-12T11:14:05;9.30;84.20
54938;DHT22;52756;52.826;6.214;2023-02-12T11:16:34;9.40;84.20
54938;DHT22;52756;52.826;6.214;2023-02-12T11:19:06;9.40;84.10
54938;DHT22;52756;52.826;6.214;2023-02-12T11:21:34;9.40;83.90
54938;DHT22;52756;52.826;6.214;2023-02-12T11:37:13;9.60;83.40
54938;DHT22;52756;52.826;6.214;2023-02-12T11:39:48;9.50;83.10
54938;DHT22;52756;52.826;6.214;2023-02-12T11:42:28;9.60;83.40
54938;DHT22;52756;52.826;6.214;2023-02-12T11:45:19;9.80;83.40
54938;DHT22;52756;52.826;6.214;2023-02-12T11:47:46;9.80;83.10
54938;DHT22;52756;52.826;6.214;2023-02-12T11:50:44;9.80;83.10
54938;DHT22;52756;52.826;6.214;2023-02-12T11:53:20;9.90;83.20
54938;DHT22;52756;52.826;6.214;2023-02-12T11:56:17;9.90;82.80
54938;DHT22;52756;52.826;6.214;2023-02-12T11:58:47;9.90;82.50
54938;DHT22;52756;52.826;6.214;2023-02-12T12:01:15;10.00;82.70
54938;DHT22;52756;52.826;6.214;2023-02-12T12:04:01;10.00;82.80
54938;DHT22;52756;52.826;6.214;2023-02-12T12:17:13;10.30;81.50
54938;DHT22;52756;52.826;6.214;2023-02-12T12:20:14;10.20;80.90
54938;DHT22;52756;52.826;6.214;2023-02-12T12:25:35;10.30;80.80
54938;DHT22;52756;52.826;6.214;2023-02-12T12:31:10;10.40;80.00
54938;DHT22;52756;52.826;6.214;2023-02-12T12:33:45;10.40;79.90
54938;DHT22;52756;52.826;6.214;2023-02-12T12:39:02;10.50;79.30
54938;DHT22;52756;52.826;6.214;2023-02-12T12:47:16;10.20;78.40
54938;DHT22;52756;52.826;6.214;2023-02-12T12:52:40;10.60;78.10
54938;DHT22;52756;52.826;6.214;2023-02-12T12:57:45;10.70;77.80
54938;DHT22;52756;52.826;6.214;2023-02-12T13:14:45;10.80;77.00
54938;DHT22;52756;52.826;6.214;2023-02-12T13:17:15;10.80;76.90
54938;DHT22;52756;52.826;6.214;2023-02-12T13:27:45;10.80;76.50
54938;DHT22;52756;52.826;6.214;2023-02-12T13:33:08;10.80;76.20
54938;DHT22;52756;52.826;6.214;2023-02-12T13:35:40;10.80;76.20
54938;DHT22;52756;52.826;6.214;2023-02-12T13:38:07;10.90;76.00
54938;DHT22;52756;52.826;6.214;2023-02-12T13:40:34;10.90;75.90
54938;DHT22;52756;52.826;6.214;2023-02-12T13:43:32;10.90;75.90
54938;DHT22;52756;52.826;6.214;2023-02-12T13:51:51;10.90;75.30
54938;DHT22;52756;52.826;6.214;2023-02-12T13:54:39;10.90;75.40
54938;DHT22;52756;52.826;6.214;2023-02-12T13:57:17;10.90;75.50
54938;DHT22;52756;52.826;6.214;2023-02-12T13:59:47;10.90;75.50
54938;DHT22;52756;52.826;6.214;2023-02-12T14:04:59;10.90;75.20
54938;DHT22;52756;52.826;6.214;2023-02-12T14:07:44;10.80;75.40
54938;DHT22;52756;52.826;6.214;2023-02-12T14:13:21;10.80;75.10
54938;DHT22;52756;52.826;6.214;2023-02-12T14:15:52;10.80;74.90
54938;DHT22;52756;52.826;6.214;2023-02-12T14:18:31;10.80;74.70
54938;DHT22;52756;52.826;6.214;2023-02-12T14:23:39;10.80;74.50
54938;DHT22;52756;52.826;6.214;2023-02-12T14:26:16;10.80;75.10
54938;DHT22;52756;52.826;6.214;2023-02-12T14:33:51;10.70;74.90
54938;DHT22;52756;52.826;6.214;2023-02-12T14:39:02;10.70;74.70
54938;DHT22;52756;52.826;6.214;2023-02-12T14:41:29;10.70;74.60
54938;DHT22;52756;52.826;6.214;2023-02-12T14:47:01;10.70;74.30
54938;DHT22;52756;52.826;6.214;2023-02-12T14:49:35;10.60;74.20
54938;DHT22;52756;52.826;6.214;2023-02-12T14:52:24;10.60;74.70
54938;DHT22;52756;52.826;6.214;2023-02-12T14:55:03;10.50;74.70
54938;DHT22;52756;52.826;6.214;2023-02-12T14:57:37;10.50;74.70
54938;DHT22;52756;52.826;6.214;2023-02-12T15:00:20;10.50;74.60
54938;DHT22;52756;52.826;6.214;2023-02-12T15:02:52;10.50;74.50
54938;DHT22;52756;52.826;6.214;2023-02-12T15:05:31;10.50;74.70
54938;DHT22;52756;52.826;6.214;2023-02-12T15:08:18;10.50;74.70
54938;DHT22;52756;52.826;6.214;2023-02-12T15:16:12;10.50;75.00
54938;DHT22;52756;52.826;6.214;2023-02-12T15:21:08;10.40;74.90
54938;DHT22;52756;52.826;6.214;2023-02-12T15:23:42;10.40;75.00
54938;DHT22;52756;52.826;6.214;2023-02-12T15:26:19;10.40;75.10
54938;DHT22;52756;52.826;6.214;2023-02-12T15:28:51;10.40;75.10
54938;DHT22;52756;52.826;6.214;2023-02-12T15:31:26;10.40;75.30
54938;DHT22;52756;52.826;6.214;2023-02-12T15:33:55;10.30;75.30
54938;DHT22;52756;52.826;6.214;2023-02-12T15:36:23;10.30;75.50
54938;DHT22;52756;52.826;6.214;2023-02-12T15:39:04;10.20;75.50
54938;DHT22;52756;52.826;6.214;2023-02-12T15:43:57;10.30;75.70
54938;DHT22;52756;52.826;6.214;2023-02-12T15:46:23;10.30;75.60
54938;DHT22;52756;52.826;6.214;2023-02-12T15:48:49;10.20;75.60
54938;DHT22;52756;52.826;6.214;2023-02-12T15:51:23;10.20;75.60
54938;DHT22;52756;52.826;6.214;2023-02-12T15:53:50;10.20;75.60
54938;DHT22;52756;52.826;6.214;2023-02-12T15:56:19;10.20;75.70
54938;DHT22;52756;52.826;6.214;2023-02-12T15:58:54;10.20;75.70
54938;DHT22;52756;52.826;6.214;2023-02-12T16:01:29;10.10;75.70
54938;DHT22;52756;52.826;6.214;2023-02-12T16:04:06;10.20;75.90
54938;DHT22;52756;52.826;6.214;2023-02-12T16:06:34;10.20;75.90
54938;DHT22;52756;52.826;6.214;2023-02-12T16:09:07;10.10;75.90
54938;DHT22;52756;52.826;6.214;2023-02-12T16:11:34;10.00;75.90
54938;DHT22;52756;52.826;6.214;2023-02-12T16:14:07;10.10;76.00
54938;DHT22;52756;52.826;6.214;2023-02-12T16:16:44;10.00;75.90
54938;DHT22;52756;52.826;6.214;2023-02-12T16:19:20;10.00;76.40
54938;DHT22;52756;52.826;6.214;2023-02-12T16:24:39;10.00;76.10
54938;DHT22;52756;52.826;6.214;2023-02-12T16:27:24;10.00;76.20
54938;DHT22;52756;52.826;6.214;2023-02-12T16:30:20;10.00;76.20
54938;DHT22;52756;52.826;6.214;2023-02-12T16:32:47;9.90;76.30
54938;DHT22;52756;52.826;6.214;2023-02-12T16:37:40;9.90;76.60
54938;DHT22;52756;52.826;6.214;2023-02-12T16:42:32;9.90;76.60
54938;DHT22;52756;52.826;6.214;2023-02-12T16:44:58;9.90;76.70
54938;DHT22;52756;52.826;6.214;2023-02-12T16:47:24;9.90;76.70
54938;DHT22;52756;52.826;6.214;2023-02-12T16:49:59;9.90;76.70
54938;DHT22;52756;52.826;6.214;2023-02-12T16:52:37;9.90;76.60
54938;DHT22;52756;52.826;6.214;2023-02-12T16:55:05;9.80;76.50
54938;DHT22;52756;52.826;6.214;2023-02-12T16:57:32;9.80;76.80
54938;DHT22;52756;52.826;6.214;2023-02-12T16:59:58;9.80;76.70
54938;DHT22;52756;52.826;6.214;2023-02-12T17:02:23;9.80;76.70
54938;DHT22;52756;52.826;6.214;2023-02-12T17:04:49;9.80;76.80
54938;DHT22;52756;52.826;6.214;2023-02-12T17:07:23;9.70;76.90
54938;DHT22;52756;52.826;6.214;2023-02-12T17:09:52;9.70;76.90
54938;DHT22;52756;52.826;6.214;2023-02-12T17:12:18;9.70;77.00
54938;DHT22;52756;52.826;6.214;2023-02-12T17:14:45;9.70;77.00
54938;DHT22;52756;52.826;6.214;2023-02-12T17:17:10;9.70;77.00
54938;DHT22;52756;52.826;6.214;2023-02-12T17:19:36;9.70;77.10
54938;DHT22;52756;52.826;6.214;2023-02-12T17:22:03;9.70;77.20
54938;DHT22;52756;52.826;6.214;2023-02-12T17:24:31;9.60;77.10
54938;DHT22;52756;52.826;6.214;2023-02-12T17:26:58;9.70;77.20
54938;DHT22;52756;52.826;6.214;2023-02-12T17:29:25;9.60;77.20
54938;DHT22;52756;52.826;6.214;2023-02-12T17:31:51;9.60;77.10
54938;DHT22;52756;52.826;6.214;2023-02-12T17:34:21;9.60;77.20
54938;DHT22;52756;52.826;6.214;2023-02-12T17:36:48;9.60;77.20
54938;DHT22;52756;52.826;6.214;2023-02-12T17:39:15;9.60;77.20
54938;DHT22;52756;52.826;6.214;2023-02-12T17:41:41;9.60;77.10
54938;DHT22;52756;52.826;6.214;2023-02-12T17:44:08;9.50;76.90
54938;DHT22;52756;52.826;6.214;2023-02-12T17:46:34;9.50;76.80
54938;DHT22;52756;52.826;6.214;2023-02-12T17:49:00;9.50;76.70
54938;DHT22;52756;52.826;6.214;2023-02-12T17:51:26;9.50;76.60
54938;DHT22;52756;52.826;6.214;2023-02-12T17:53:52;9.50;76.70
54938;DHT22;52756;52.826;6.214;2023-02-12T17:56:20;9.40;76.70
54938;DHT22;52756;52.826;6.214;2023-02-12T17:58:47;9.40;76.80
54938;DHT22;52756;52.826;6.214;2023-02-12T18:01:18;9.40;77.00
54938;DHT22;52756;52.826;6.214;2023-02-12T18:03:44;9.40;77.20
54938;DHT22;52756;52.826;6.214;2023-02-12T18:06:10;9.40;77.30
54938;DHT22;52756;52.826;6.214;2023-02-12T18:08:39;9.30;77.30
54938;DHT22;52756;52.826;6.214;2023-02-12T18:11:07;9.30;77.30
54938;DHT22;52756;52.826;6.214;2023-02-12T18:13:35;9.30;77.30
54938;DHT22;52756;52.826;6.214;2023-02-12T18:16:01;9.30;77.40
54938;DHT22;52756;52.826;6.214;2023-02-12T18:18:33;9.30;77.80
54938;DHT22;52756;52.826;6.214;2023-02-12T18:21:06;9.20;77.40
54938;DHT22;52756;52.826;6.214;2023-02-12T18:23:32;9.20;77.50
54938;DHT22;52756;52.826;6.214;2023-02-12T18:25:58;9.20;77.60
54938;DHT22;52756;52.826;6.214;2023-02-12T18:28:24;9.10;77.70
54938;DHT22;52756;52.826;6.214;2023-02-12T18:30:56;9.10;77.90
54938;DHT22;52756;52.826;6.214;2023-02-12T18:33:23;9.10;78.00
54938;DHT22;52756;52.826;6.214;2023-02-12T18:36:08;9.10;78.10
54938;DHT22;52756;52.826;6.214;2023-02-12T18:38:37;9.10;78.10
54938;DHT22;52756;52.826;6.214;2023-02-12T18:41:18;9.10;78.60
54938;DHT22;52756;52.826;6.214;2023-02-12T18:43:44;9.10;78.20
54938;DHT22;52756;52.826;6.214;2023-02-12T18:46:12;9.00;78.20
54938;DHT22;52756;52.826;6.214;2023-02-12T18:48:39;9.00;78.30
54938;DHT22;52756;52.826;6.214;2023-02-12T18:51:21;9.00;78.40
54938;DHT22;52756;52.826;6.214;2023-02-12T18:54:00;9.00;78.50
54938;DHT22;52756;52.826;6.214;2023-02-12T18:56:33;9.00;78.60
54938;DHT22;52756;52.826;6.214;2023-02-12T18:59:02;9.40;78.90
54938;DHT22;52756;52.826;6.214;2023-02-12T19:01:30;8.90;78.60
54938;DHT22;52756;52.826;6.214;2023-02-12T19:03:59;8.90;78.60
54938;DHT22;52756;52.826;6.214;2023-02-12T19:06:29;9.00;78.80
54938;DHT22;52756;52.826;6.214;2023-02-12T19:08:57;8.90;78.70
54938;DHT22;52756;52.826;6.214;2023-02-12T19:11:27;8.90;78.70
54938;DHT22;52756;52.826;6.214;2023-02-12T19:13:53;8.90;78.70
54938;DHT22;52756;52.826;6.214;2023-02-12T19:16:20;8.90;78.70
54938;DHT22;52756;52.826;6.214;2023-02-12T19:18:56;8.90;78.70